Terminal Aerodrome Forecast
Issued by NWS

Home | Current Version | Previous Version | Text Only | Print | Product List | Glossary On
Versions: 1 2 3 4 5 6 7 8 9 10 11 12 13 14 15 16 17 18 19 20 21 22 23 24 25 26 27
000
FTUS43 KDDC 151905 AAA
TAFHYS
TAF AMD
KHYS 151905Z 1519/1618 16016G25KT P6SM SCT050
     FM160000 16016G24KT P6SM SCT090
     FM160300 15010KT P6SM -SHRA VCTS BKN090CB
      TEMPO 1603/1606 4SM TS OVC040CB
     FM160600 16009KT P6SM VCTS BKN140CB
     FM160900 18005KT P6SM VCTS BKN110CB
     FM161200 22005KT P6SM BKN090
     FM161700 32007KT P6SM BKN009=

USA.gov is the U.S. government's official web portal to all federal, state and local government web resources and services.